sensor_id;sensor_type;location;lat;lon;timestamp;P1;durP1;ratioP1;P2;durP2;ratioP2
43118;SDS011;28729;49.838;8.650;2023-04-03T00:01:03;4.00;;;2.45;;
43118;SDS011;28729;49.838;8.650;2023-04-03T00:05:06;4.57;;;2.33;;
43118;SDS011;28729;49.838;8.650;2023-04-03T00:09:08;4.90;;;2.30;;
43118;SDS011;28729;49.838;8.650;2023-04-03T00:13:10;4.27;;;2.53;;
43118;SDS011;28729;49.838;8.650;2023-04-03T00:17:13;3.90;;;2.40;;
43118;SDS011;28729;49.838;8.650;2023-04-03T00:21:14;4.70;;;2.22;;
43118;SDS011;28729;49.838;8.650;2023-04-03T00:25:16;5.43;;;2.30;;
43118;SDS011;28729;49.838;8.650;2023-04-03T00:29:18;4.13;;;2.40;;
43118;SDS011;28729;49.838;8.650;2023-04-03T00:33:20;3.72;;;2.33;;
43118;SDS011;28729;49.838;8.650;2023-04-03T00:41:24;3.70;;;2.10;;
43118;SDS011;28729;49.838;8.650;2023-04-03T00:45:29;5.55;;;2.40;;
43118;SDS011;28729;49.838;8.650;2023-04-03T00:49:39;4.77;;;2.70;;
43118;SDS011;28729;49.838;8.650;2023-04-03T00:53:55;5.03;;;2.65;;
43118;SDS011;28729;49.838;8.650;2023-04-03T00:58:02;4.10;;;2.53;;
43118;SDS011;28729;49.838;8.650;2023-04-03T01:02:04;4.77;;;2.57;;
43118;SDS011;28729;49.838;8.650;2023-04-03T01:06:06;3.93;;;2.30;;
43118;SDS011;28729;49.838;8.650;2023-04-03T01:10:09;4.15;;;2.47;;
43118;SDS011;28729;49.838;8.650;2023-04-03T01:14:15;5.82;;;2.38;;
43118;SDS011;28729;49.838;8.650;2023-04-03T01:18:17;3.85;;;2.30;;
43118;SDS011;28729;49.838;8.650;2023-04-03T01:26:28;5.95;;;2.13;;
43118;SDS011;28729;49.838;8.650;2023-04-03T01:30:32;5.93;;;1.90;;
43118;SDS011;28729;49.838;8.650;2023-04-03T01:34:36;5.05;;;2.63;;
43118;SDS011;28729;49.838;8.650;2023-04-03T01:38:39;4.80;;;2.13;;
43118;SDS011;28729;49.838;8.650;2023-04-03T01:42:40;5.60;;;2.45;;
43118;SDS011;28729;49.838;8.650;2023-04-03T01:46:42;3.33;;;1.83;;
43118;SDS011;28729;49.838;8.650;2023-04-03T01:50:44;5.88;;;2.70;;
43118;SDS011;28729;49.838;8.650;2023-04-03T01:54:46;5.03;;;2.42;;
43118;SDS011;28729;49.838;8.650;2023-04-03T01:58:48;4.30;;;2.17;;
43118;SDS011;28729;49.838;8.650;2023-04-03T02:06:53;8.60;;;2.35;;
43118;SDS011;28729;49.838;8.650;2023-04-03T02:10:54;5.15;;;2.03;;
43118;SDS011;28729;49.838;8.650;2023-04-03T02:14:56;3.92;;;2.08;;
43118;SDS011;28729;49.838;8.650;2023-04-03T02:18:58;3.72;;;1.80;;
43118;SDS011;28729;49.838;8.650;2023-04-03T02:23:00;2.17;;;1.70;;
43118;SDS011;28729;49.838;8.650;2023-04-03T02:27:02;5.72;;;2.13;;
43118;SDS011;28729;49.838;8.650;2023-04-03T02:31:04;5.80;;;1.88;;
43118;SDS011;28729;49.838;8.650;2023-04-03T02:35:09;5.38;;;1.80;;
43118;SDS011;28729;49.838;8.650;2023-04-03T02:39:13;5.85;;;2.20;;
43118;SDS011;28729;49.838;8.650;2023-04-03T02:43:16;4.20;;;2.00;;
43118;SDS011;28729;49.838;8.650;2023-04-03T02:47:18;4.50;;;2.10;;
43118;SDS011;28729;49.838;8.650;2023-04-03T02:51:22;3.65;;;2.17;;
43118;SDS011;28729;49.838;8.650;2023-04-03T02:55:25;5.82;;;1.77;;
43118;SDS011;28729;49.838;8.650;2023-04-03T02:59:30;4.90;;;2.08;;
43118;SDS011;28729;49.838;8.650;2023-04-03T03:03:32;3.42;;;1.92;;
43118;SDS011;28729;49.838;8.650;2023-04-03T03:07:33;5.25;;;1.90;;
43118;SDS011;28729;49.838;8.650;2023-04-03T03:11:35;4.10;;;2.00;;
43118;SDS011;28729;49.838;8.650;2023-04-03T03:15:37;4.15;;;2.20;;
43118;SDS011;28729;49.838;8.650;2023-04-03T03:19:39;4.88;;;2.00;;
43118;SDS011;28729;49.838;8.650;2023-04-03T03:23:41;5.07;;;1.95;;
43118;SDS011;28729;49.838;8.650;2023-04-03T03:27:42;5.95;;;2.30;;
43118;SDS011;28729;49.838;8.650;2023-04-03T03:31:44;2.47;;;1.27;;
43118;SDS011;28729;49.838;8.650;2023-04-03T03:35:46;5.22;;;1.90;;
43118;SDS011;28729;49.838;8.650;2023-04-03T03:39:48;3.03;;;1.77;;
43118;SDS011;28729;49.838;8.650;2023-04-03T03:43:50;4.68;;;2.20;;
43118;SDS011;28729;49.838;8.650;2023-04-03T03:47:53;4.45;;;1.67;;
43118;SDS011;28729;49.838;8.650;2023-04-03T03:51:58;3.63;;;1.90;;
43118;SDS011;28729;49.838;8.650;2023-04-03T03:56:00;6.15;;;2.28;;
43118;SDS011;28729;49.838;8.650;2023-04-03T04:00:04;5.72;;;2.30;;
43118;SDS011;28729;49.838;8.650;2023-04-03T04:04:15;5.35;;;2.30;;
43118;SDS011;28729;49.838;8.650;2023-04-03T04:08:17;6.63;;;2.50;;
43118;SDS011;28729;49.838;8.650;2023-04-03T04:12:19;3.25;;;1.58;;
43118;SDS011;28729;49.838;8.650;2023-04-03T04:16:23;3.95;;;2.00;;
43118;SDS011;28729;49.838;8.650;2023-04-03T04:20:26;4.78;;;1.70;;
43118;SDS011;28729;49.838;8.650;2023-04-03T04:24:28;5.57;;;2.05;;
43118;SDS011;28729;49.838;8.650;2023-04-03T04:28:31;5.65;;;1.95;;
43118;SDS011;28729;49.838;8.650;2023-04-03T04:32:35;4.13;;;1.58;;
43118;SDS011;28729;49.838;8.650;2023-04-03T04:36:37;5.65;;;2.53;;
43118;SDS011;28729;49.838;8.650;2023-04-03T04:40:40;4.20;;;1.77;;
43118;SDS011;28729;49.838;8.650;2023-04-03T04:44:43;4.03;;;2.13;;
43118;SDS011;28729;49.838;8.650;2023-04-03T04:48:47;5.18;;;2.03;;
43118;SDS011;28729;49.838;8.650;2023-04-03T04:52:52;4.22;;;1.98;;
43118;SDS011;28729;49.838;8.650;2023-04-03T04:56:54;4.37;;;1.83;;
43118;SDS011;28729;49.838;8.650;2023-04-03T05:00:59;5.40;;;2.10;;
43118;SDS011;28729;49.838;8.650;2023-04-03T05:05:03;5.13;;;1.88;;
43118;SDS011;28729;49.838;8.650;2023-04-03T05:09:07;5.97;;;2.00;;
43118;SDS011;28729;49.838;8.650;2023-04-03T05:13:11;3.83;;;2.13;;
43118;SDS011;28729;49.838;8.650;2023-04-03T05:17:13;8.23;;;2.53;;
43118;SDS011;28729;49.838;8.650;2023-04-03T05:21:22;4.20;;;1.80;;
43118;SDS011;28729;49.838;8.650;2023-04-03T05:25:26;4.88;;;2.05;;
43118;SDS011;28729;49.838;8.650;2023-04-03T05:29:30;6.50;;;2.17;;
43118;SDS011;28729;49.838;8.650;2023-04-03T05:33:34;5.45;;;1.75;;
43118;SDS011;28729;49.838;8.650;2023-04-03T05:37:39;4.35;;;1.77;;
43118;SDS011;28729;49.838;8.650;2023-04-03T05:41:41;3.23;;;1.47;;
43118;SDS011;28729;49.838;8.650;2023-04-03T05:45:43;3.83;;;1.47;;
43118;SDS011;28729;49.838;8.650;2023-04-03T05:49:47;3.92;;;1.30;;
43118;SDS011;28729;49.838;8.650;2023-04-03T05:53:52;5.75;;;1.45;;
43118;SDS011;28729;49.838;8.650;2023-04-03T05:58:02;4.95;;;1.55;;
43118;SDS011;28729;49.838;8.650;2023-04-03T06:02:04;3.25;;;1.30;;
43118;SDS011;28729;49.838;8.650;2023-04-03T06:06:06;2.78;;;1.48;;
43118;SDS011;28729;49.838;8.650;2023-04-03T06:14:14;3.72;;;1.45;;
43118;SDS011;28729;49.838;8.650;2023-04-03T06:18:16;4.80;;;1.27;;
43118;SDS011;28729;49.838;8.650;2023-04-03T06:22:19;5.40;;;1.52;;
43118;SDS011;28729;49.838;8.650;2023-04-03T06:26:21;3.53;;;1.43;;
43118;SDS011;28729;49.838;8.650;2023-04-03T06:30:23;3.83;;;1.50;;
43118;SDS011;28729;49.838;8.650;2023-04-03T06:34:25;6.20;;;2.10;;
43118;SDS011;28729;49.838;8.650;2023-04-03T06:38:27;7.88;;;1.70;;
43118;SDS011;28729;49.838;8.650;2023-04-03T06:42:30;4.80;;;1.35;;
43118;SDS011;28729;49.838;8.650;2023-04-03T06:46:40;5.45;;;1.67;;
43118;SDS011;28729;49.838;8.650;2023-04-03T06:50:42;4.00;;;1.52;;
43118;SDS011;28729;49.838;8.650;2023-04-03T06:54:44;4.63;;;1.87;;
43118;SDS011;28729;49.838;8.650;2023-04-03T06:58:46;2.80;;;1.37;;
43118;SDS011;28729;49.838;8.650;2023-04-03T07:02:52;5.13;;;1.70;;
43118;SDS011;28729;49.838;8.650;2023-04-03T07:06:54;3.40;;;1.58;;
43118;SDS011;28729;49.838;8.650;2023-04-03T07:10:56;4.85;;;1.50;;
43118;SDS011;28729;49.838;8.650;2023-04-03T07:14:58;4.55;;;1.95;;
43118;SDS011;28729;49.838;8.650;2023-04-03T07:19:00;4.38;;;1.65;;
43118;SDS011;28729;49.838;8.650;2023-04-03T07:23:05;5.53;;;1.65;;
43118;SDS011;28729;49.838;8.650;2023-04-03T07:27:07;5.75;;;1.30;;
43118;SDS011;28729;49.838;8.650;2023-04-03T07:31:11;5.65;;;1.50;;
43118;SDS011;28729;49.838;8.650;2023-04-03T07:35:15;7.07;;;1.42;;
43118;SDS011;28729;49.838;8.650;2023-04-03T07:39:19;2.35;;;1.40;;
43118;SDS011;28729;49.838;8.650;2023-04-03T07:43:21;8.85;;;1.48;;
43118;SDS011;28729;49.838;8.650;2023-04-03T07:47:23;3.25;;;1.10;;
43118;SDS011;28729;49.838;8.650;2023-04-03T07:51:26;6.13;;;1.17;;
43118;SDS011;28729;49.838;8.650;2023-04-03T07:55:28;4.72;;;1.50;;
43118;SDS011;28729;49.838;8.650;2023-04-03T07:59:35;3.78;;;1.08;;
43118;SDS011;28729;49.838;8.650;2023-04-03T08:03:37;4.68;;;1.30;;
43118;SDS011;28729;49.838;8.650;2023-04-03T08:11:42;4.28;;;1.25;;
43118;SDS011;28729;49.838;8.650;2023-04-03T08:15:44;7.38;;;1.90;;
43118;SDS011;28729;49.838;8.650;2023-04-03T08:19:46;2.90;;;1.23;;
43118;SDS011;28729;49.838;8.650;2023-04-03T08:23:49;5.22;;;1.08;;
43118;SDS011;28729;49.838;8.650;2023-04-03T08:27:52;5.95;;;1.33;;
43118;SDS011;28729;49.838;8.650;2023-04-03T08:31:57;4.35;;;1.00;;
43118;SDS011;28729;49.838;8.650;2023-04-03T08:36:07;6.30;;;1.67;;
43118;SDS011;28729;49.838;8.650;2023-04-03T08:40:17;2.30;;;1.38;;
43118;SDS011;28729;49.838;8.650;2023-04-03T08:44:22;4.95;;;1.63;;
43118;SDS011;28729;49.838;8.650;2023-04-03T08:48:29;2.65;;;1.15;;
43118;SDS011;28729;49.838;8.650;2023-04-03T08:52:44;3.97;;;1.80;;
43118;SDS011;28729;49.838;8.650;2023-04-03T08:56:50;4.45;;;1.42;;
43118;SDS011;28729;49.838;8.650;2023-04-03T09:01:04;2.85;;;1.52;;
43118;SDS011;28729;49.838;8.650;2023-04-03T09:05:19;3.95;;;1.45;;
43118;SDS011;28729;49.838;8.650;2023-04-03T09:09:29;3.72;;;1.48;;
43118;SDS011;28729;49.838;8.650;2023-04-03T09:17:58;3.60;;;1.35;;
43118;SDS011;28729;49.838;8.650;2023-04-03T09:22:25;4.38;;;1.30;;
43118;SDS011;28729;49.838;8.650;2023-04-03T09:30:42;3.55;;;1.15;;
43118;SDS011;28729;49.838;8.650;2023-04-03T09:34:44;3.72;;;1.45;;
43118;SDS011;28729;49.838;8.650;2023-04-03T09:39:02;5.93;;;1.30;;
43118;SDS011;28729;49.838;8.650;2023-04-03T09:43:22;4.15;;;1.42;;
43118;SDS011;28729;49.838;8.650;2023-04-03T09:47:28;5.70;;;1.40;;
43118;SDS011;28729;49.838;8.650;2023-04-03T09:51:35;6.28;;;1.20;;
43118;SDS011;28729;49.838;8.650;2023-04-03T09:55:44;2.53;;;1.02;;
43118;SDS011;28729;49.838;8.650;2023-04-03T09:59:58;1.90;;;1.00;;
43118;SDS011;28729;49.838;8.650;2023-04-03T10:12:18;4.32;;;1.30;;
43118;SDS011;28729;49.838;8.650;2023-04-03T10:16:23;4.30;;;1.30;;
43118;SDS011;28729;49.838;8.650;2023-04-03T10:24:47;5.50;;;1.85;;
43118;SDS011;28729;49.838;8.650;2023-04-03T10:37:59;4.30;;;1.25;;
43118;SDS011;28729;49.838;8.650;2023-04-03T10:46:57;2.85;;;1.08;;
43118;SDS011;28729;49.838;8.650;2023-04-03T11:03:50;4.18;;;1.95;;
43118;SDS011;28729;49.838;8.650;2023-04-03T11:08:05;3.17;;;1.23;;
43118;SDS011;28729;49.838;8.650;2023-04-03T11:16:47;4.70;;;1.15;;
43118;SDS011;28729;49.838;8.650;2023-04-03T11:25:27;3.22;;;1.63;;
43118;SDS011;28729;49.838;8.650;2023-04-03T11:29:35;3.53;;;1.27;;
43118;SDS011;28729;49.838;8.650;2023-04-03T11:33:51;3.70;;;1.23;;
43118;SDS011;28729;49.838;8.650;2023-04-03T11:38:02;4.40;;;1.63;;
43118;SDS011;28729;49.838;8.650;2023-04-03T11:42:13;4.38;;;1.35;;
43118;SDS011;28729;49.838;8.650;2023-04-03T11:46:17;4.05;;;1.30;;
43118;SDS011;28729;49.838;8.650;2023-04-03T11:50:31;3.55;;;1.33;;
43118;SDS011;28729;49.838;8.650;2023-04-03T11:54:44;2.28;;;1.33;;
43118;SDS011;28729;49.838;8.650;2023-04-03T12:07:32;3.92;;;1.42;;
43118;SDS011;28729;49.838;8.650;2023-04-03T12:11:34;2.90;;;1.30;;
43118;SDS011;28729;49.838;8.650;2023-04-03T12:19:43;2.92;;;1.20;;
43118;SDS011;28729;49.838;8.650;2023-04-03T12:28:05;4.35;;;1.33;;
43118;SDS011;28729;49.838;8.650;2023-04-03T12:32:23;3.30;;;1.15;;
43118;SDS011;28729;49.838;8.650;2023-04-03T12:36:46;5.32;;;1.42;;
43118;SDS011;28729;49.838;8.650;2023-04-03T12:41:07;3.45;;;1.20;;
43118;SDS011;28729;49.838;8.650;2023-04-03T12:45:20;3.63;;;1.20;;
43118;SDS011;28729;49.838;8.650;2023-04-03T12:49:33;2.80;;;1.40;;
43118;SDS011;28729;49.838;8.650;2023-04-03T12:53:38;4.38;;;1.30;;
43118;SDS011;28729;49.838;8.650;2023-04-03T12:57:40;2.08;;;1.35;;
43118;SDS011;28729;49.838;8.650;2023-04-03T13:01:43;5.25;;;1.30;;
43118;SDS011;28729;49.838;8.650;2023-04-03T13:05:55;3.53;;;1.60;;
43118;SDS011;28729;49.838;8.650;2023-04-03T13:10:01;3.45;;;1.50;;
43118;SDS011;28729;49.838;8.650;2023-04-03T13:14:20;4.00;;;1.20;;
43118;SDS011;28729;49.838;8.650;2023-04-03T13:18:30;3.90;;;1.30;;
43118;SDS011;28729;49.838;8.650;2023-04-03T13:22:35;2.90;;;1.33;;
43118;SDS011;28729;49.838;8.650;2023-04-03T13:26:44;1.88;;;1.23;;
43118;SDS011;28729;49.838;8.650;2023-04-03T13:30:59;2.22;;;1.13;;
43118;SDS011;28729;49.838;8.650;2023-04-03T13:35:23;3.63;;;1.45;;
43118;SDS011;28729;49.838;8.650;2023-04-03T13:39:28;2.17;;;1.33;;
43118;SDS011;28729;49.838;8.650;2023-04-03T13:43:35;3.90;;;1.13;;
43118;SDS011;28729;49.838;8.650;2023-04-03T13:47:39;2.78;;;1.33;;
43118;SDS011;28729;49.838;8.650;2023-04-03T13:51:42;3.17;;;1.20;;
43118;SDS011;28729;49.838;8.650;2023-04-03T13:55:57;2.83;;;1.25;;
43118;SDS011;28729;49.838;8.650;2023-04-03T14:04:46;2.95;;;1.35;;
43118;SDS011;28729;49.838;8.650;2023-04-03T14:08:54;3.28;;;1.40;;
43118;SDS011;28729;49.838;8.650;2023-04-03T14:12:56;2.45;;;1.30;;
43118;SDS011;28729;49.838;8.650;2023-04-03T14:16:59;2.73;;;1.27;;
43118;SDS011;28729;49.838;8.650;2023-04-03T14:21:02;4.13;;;1.60;;
43118;SDS011;28729;49.838;8.650;2023-04-03T14:25:04;2.63;;;1.43;;
43118;SDS011;28729;49.838;8.650;2023-04-03T14:29:09;6.25;;;2.33;;
43118;SDS011;28729;49.838;8.650;2023-04-03T14:33:13;4.32;;;1.27;;
43118;SDS011;28729;49.838;8.650;2023-04-03T14:37:21;3.15;;;1.42;;
43118;SDS011;28729;49.838;8.650;2023-04-03T14:41:26;4.20;;;1.40;;
43118;SDS011;28729;49.838;8.650;2023-04-03T14:45:28;3.45;;;1.30;;
43118;SDS011;28729;49.838;8.650;2023-04-03T14:49:30;3.10;;;1.15;;
43118;SDS011;28729;49.838;8.650;2023-04-03T14:53:32;6.63;;;1.50;;
43118;SDS011;28729;49.838;8.650;2023-04-03T14:57:37;4.63;;;1.48;;
43118;SDS011;28729;49.838;8.650;2023-04-03T15:01:41;4.55;;;1.75;;
43118;SDS011;28729;49.838;8.650;2023-04-03T15:05:43;5.78;;;2.50;;
43118;SDS011;28729;49.838;8.650;2023-04-03T15:09:47;4.85;;;1.48;;
43118;SDS011;28729;49.838;8.650;2023-04-03T15:13:51;4.22;;;1.65;;
43118;SDS011;28729;49.838;8.650;2023-04-03T15:17:53;4.35;;;1.80;;
43118;SDS011;28729;49.838;8.650;2023-04-03T15:21:59;3.60;;;1.60;;
43118;SDS011;28729;49.838;8.650;2023-04-03T15:26:01;4.38;;;1.83;;
43118;SDS011;28729;49.838;8.650;2023-04-03T15:30:04;3.40;;;1.90;;
43118;SDS011;28729;49.838;8.650;2023-04-03T15:34:07;3.63;;;1.50;;
43118;SDS011;28729;49.838;8.650;2023-04-03T15:38:09;3.05;;;1.40;;
43118;SDS011;28729;49.838;8.650;2023-04-03T15:46:13;3.80;;;1.27;;
43118;SDS011;28729;49.838;8.650;2023-04-03T15:50:16;3.03;;;1.30;;
43118;SDS011;28729;49.838;8.650;2023-04-03T15:54:18;8.43;;;1.90;;
43118;SDS011;28729;49.838;8.650;2023-04-03T15:58:20;3.95;;;1.38;;
43118;SDS011;28729;49.838;8.650;2023-04-03T16:02:22;5.70;;;2.05;;
43118;SDS011;28729;49.838;8.650;2023-04-03T16:06:25;4.00;;;1.52;;
43118;SDS011;28729;49.838;8.650;2023-04-03T16:10:30;4.97;;;1.40;;
43118;SDS011;28729;49.838;8.650;2023-04-03T16:14:32;4.07;;;1.50;;
43118;SDS011;28729;49.838;8.650;2023-04-03T16:18:34;2.87;;;1.27;;
43118;SDS011;28729;49.838;8.650;2023-04-03T16:22:37;2.20;;;1.30;;
43118;SDS011;28729;49.838;8.650;2023-04-03T16:26:39;4.40;;;1.17;;
43118;SDS011;28729;49.838;8.650;2023-04-03T16:30:41;4.30;;;1.50;;
43118;SDS011;28729;49.838;8.650;2023-04-03T16:34:44;3.22;;;1.10;;
43118;SDS011;28729;49.838;8.650;2023-04-03T16:38:45;2.45;;;1.05;;
43118;SDS011;28729;49.838;8.650;2023-04-03T16:42:47;3.17;;;1.23;;
43118;SDS011;28729;49.838;8.650;2023-04-03T16:46:49;2.42;;;1.10;;
43118;SDS011;28729;49.838;8.650;2023-04-03T16:50:51;6.22;;;2.28;;
43118;SDS011;28729;49.838;8.650;2023-04-03T16:54:55;2.70;;;1.10;;
43118;SDS011;28729;49.838;8.650;2023-04-03T16:58:57;3.23;;;1.70;;
43118;SDS011;28729;49.838;8.650;2023-04-03T17:02:59;6.03;;;2.10;;
43118;SDS011;28729;49.838;8.650;2023-04-03T17:07:01;14.13;;;3.92;;
43118;SDS011;28729;49.838;8.650;2023-04-03T17:11:07;5.03;;;3.15;;
43118;SDS011;28729;49.838;8.650;2023-04-03T17:15:09;7.63;;;2.67;;
43118;SDS011;28729;49.838;8.650;2023-04-03T17:19:11;10.17;;;4.27;;
43118;SDS011;28729;49.838;8.650;2023-04-03T17:23:13;3.60;;;1.67;;
43118;SDS011;28729;49.838;8.650;2023-04-03T17:27:15;7.53;;;2.07;;
43118;SDS011;28729;49.838;8.650;2023-04-03T17:31:16;4.97;;;1.75;;
43118;SDS011;28729;49.838;8.650;2023-04-03T17:35:22;5.25;;;2.92;;
43118;SDS011;28729;49.838;8.650;2023-04-03T17:39:24;7.53;;;1.95;;
43118;SDS011;28729;49.838;8.650;2023-04-03T17:43:26;5.63;;;2.20;;
43118;SDS011;28729;49.838;8.650;2023-04-03T17:47:29;4.45;;;1.40;;
43118;SDS011;28729;49.838;8.650;2023-04-03T17:51:30;6.30;;;2.45;;
43118;SDS011;28729;49.838;8.650;2023-04-03T17:55:38;13.93;;;5.13;;
43118;SDS011;28729;49.838;8.650;2023-04-03T17:59:41;20.70;;;8.93;;
43118;SDS011;28729;49.838;8.650;2023-04-03T18:03:42;43.85;;;15.70;;
43118;SDS011;28729;49.838;8.650;2023-04-03T18:07:45;68.07;;;25.38;;
43118;SDS011;28729;49.838;8.650;2023-04-03T18:11:48;27.30;;;10.93;;
43118;SDS011;28729;49.838;8.650;2023-04-03T18:15:51;11.95;;;4.18;;
43118;SDS011;28729;49.838;8.650;2023-04-03T18:19:52;7.22;;;3.05;;
43118;SDS011;28729;49.838;8.650;2023-04-03T18:23:54;6.72;;;3.42;;
43118;SDS011;28729;49.838;8.650;2023-04-03T18:27:57;7.53;;;4.47;;
43118;SDS011;28729;49.838;8.650;2023-04-03T18:32:00;4.72;;;2.25;;
43118;SDS011;28729;49.838;8.650;2023-04-03T18:36:06;4.13;;;1.83;;
43118;SDS011;28729;49.838;8.650;2023-04-03T18:40:08;2.85;;;1.30;;
43118;SDS011;28729;49.838;8.650;2023-04-03T18:44:11;4.30;;;1.55;;
43118;SDS011;28729;49.838;8.650;2023-04-03T18:48:16;6.55;;;2.55;;
43118;SDS011;28729;49.838;8.650;2023-04-03T18:52:17;4.28;;;2.30;;
43118;SDS011;28729;49.838;8.650;2023-04-03T19:00:22;4.45;;;2.42;;
43118;SDS011;28729;49.838;8.650;2023-04-03T19:04:25;4.22;;;2.00;;
43118;SDS011;28729;49.838;8.650;2023-04-03T19:08:29;4.25;;;1.35;;
43118;SDS011;28729;49.838;8.650;2023-04-03T19:12:31;5.90;;;2.20;;
43118;SDS011;28729;49.838;8.650;2023-04-03T19:16:33;8.20;;;2.63;;
43118;SDS011;28729;49.838;8.650;2023-04-03T19:20:35;5.05;;;1.42;;
43118;SDS011;28729;49.838;8.650;2023-04-03T19:24:36;2.10;;;0.90;;
43118;SDS011;28729;49.838;8.650;2023-04-03T19:28:38;5.43;;;1.27;;
43118;SDS011;28729;49.838;8.650;2023-04-03T19:32:40;2.67;;;1.20;;
43118;SDS011;28729;49.838;8.650;2023-04-03T19:36:42;4.78;;;1.33;;
43118;SDS011;28729;49.838;8.650;2023-04-03T19:40:44;6.00;;;3.03;;
43118;SDS011;28729;49.838;8.650;2023-04-03T19:44:46;13.93;;;5.30;;
43118;SDS011;28729;49.838;8.650;2023-04-03T19:48:49;29.50;;;10.55;;
43118;SDS011;28729;49.838;8.650;2023-04-03T19:52:50;29.10;;;10.52;;
43118;SDS011;28729;49.838;8.650;2023-04-03T19:56:52;61.35;;;20.38;;
43118;SDS011;28729;49.838;8.650;2023-04-03T20:00:55;47.78;;;17.23;;
43118;SDS011;28729;49.838;8.650;2023-04-03T20:04:57;14.18;;;6.47;;
43118;SDS011;28729;49.838;8.650;2023-04-03T20:08:59;8.60;;;3.95;;
43118;SDS011;28729;49.838;8.650;2023-04-03T20:13:01;5.17;;;2.70;;
43118;SDS011;28729;49.838;8.650;2023-04-03T20:17:04;3.88;;;1.90;;
43118;SDS011;28729;49.838;8.650;2023-04-03T20:21:06;4.63;;;1.98;;
43118;SDS011;28729;49.838;8.650;2023-04-03T20:25:09;4.37;;;1.30;;
43118;SDS011;28729;49.838;8.650;2023-04-03T20:29:19;3.38;;;1.10;;
43118;SDS011;28729;49.838;8.650;2023-04-03T20:33:22;4.47;;;2.22;;
43118;SDS011;28729;49.838;8.650;2023-04-03T20:37:26;3.30;;;1.80;;
43118;SDS011;28729;49.838;8.650;2023-04-03T20:41:28;8.50;;;2.00;;
43118;SDS011;28729;49.838;8.650;2023-04-03T20:45:30;6.00;;;1.65;;
43118;SDS011;28729;49.838;8.650;2023-04-03T20:49:32;2.85;;;1.73;;
43118;SDS011;28729;49.838;8.650;2023-04-03T20:53:34;3.15;;;1.48;;
43118;SDS011;28729;49.838;8.650;2023-04-03T20:57:36;4.03;;;1.30;;
43118;SDS011;28729;49.838;8.650;2023-04-03T21:01:38;2.15;;;1.20;;
43118;SDS011;28729;49.838;8.650;2023-04-03T21:05:40;4.17;;;1.20;;
43118;SDS011;28729;49.838;8.650;2023-04-03T21:19:09;1.85;;;1.10;;
43118;SDS011;28729;49.838;8.650;2023-04-03T21:23:14;3.63;;;1.00;;
43118;SDS011;28729;49.838;8.650;2023-04-03T21:27:16;3.22;;;1.33;;
43118;SDS011;28729;49.838;8.650;2023-04-03T21:31:20;3.60;;;1.23;;
43118;SDS011;28729;49.838;8.650;2023-04-03T21:35:25;4.63;;;1.27;;
43118;SDS011;28729;49.838;8.650;2023-04-03T21:39:27;4.22;;;1.10;;
43118;SDS011;28729;49.838;8.650;2023-04-03T21:43:29;3.05;;;1.23;;
43118;SDS011;28729;49.838;8.650;2023-04-03T21:47:31;3.63;;;1.07;;
43118;SDS011;28729;49.838;8.650;2023-04-03T21:51:34;2.05;;;1.00;;
43118;SDS011;28729;49.838;8.650;2023-04-03T21:55:37;2.85;;;1.58;;
43118;SDS011;28729;49.838;8.650;2023-04-03T21:59:38;3.70;;;1.27;;
43118;SDS011;28729;49.838;8.650;2023-04-03T22:03:42;1.75;;;0.98;;
43118;SDS011;28729;49.838;8.650;2023-04-03T22:07:45;5.82;;;1.30;;
43118;SDS011;28729;49.838;8.650;2023-04-03T22:11:48;2.20;;;1.30;;
43118;SDS011;28729;49.838;8.650;2023-04-03T22:15:50;5.43;;;1.40;;
43118;SDS011;28729;49.838;8.650;2023-04-03T22:19:52;4.05;;;0.93;;
43118;SDS011;28729;49.838;8.650;2023-04-03T22:23:54;2.30;;;1.00;;
43118;SDS011;28729;49.838;8.650;2023-04-03T22:27:56;3.58;;;1.80;;
43118;SDS011;28729;49.838;8.650;2023-04-03T22:31:58;3.28;;;1.10;;
43118;SDS011;28729;49.838;8.650;2023-04-03T22:36:00;2.63;;;1.00;;
43118;SDS011;28729;49.838;8.650;2023-04-03T22:40:01;4.45;;;1.60;;
43118;SDS011;28729;49.838;8.650;2023-04-03T22:48:06;1.38;;;1.20;;
43118;SDS011;28729;49.838;8.650;2023-04-03T22:52:08;2.28;;;1.25;;
43118;SDS011;28729;49.838;8.650;2023-04-03T22:56:10;2.70;;;1.40;;
43118;SDS011;28729;49.838;8.650;2023-04-03T23:00:12;5.65;;;1.30;;
43118;SDS011;28729;49.838;8.650;2023-04-03T23:04:17;3.72;;;1.52;;
43118;SDS011;28729;49.838;8.650;2023-04-03T23:12:21;2.45;;;1.42;;
43118;SDS011;28729;49.838;8.650;2023-04-03T23:16:22;2.88;;;1.70;;
43118;SDS011;28729;49.838;8.650;2023-04-03T23:20:24;4.47;;;1.77;;
43118;SDS011;28729;49.838;8.650;2023-04-03T23:24:26;3.57;;;1.40;;
43118;SDS011;28729;49.838;8.650;2023-04-03T23:28:29;4.68;;;1.80;;
43118;SDS011;28729;49.838;8.650;2023-04-03T23:32:31;3.13;;;1.17;;
43118;SDS011;28729;49.838;8.650;2023-04-03T23:36:32;3.50;;;1.58;;
43118;SDS011;28729;49.838;8.650;2023-04-03T23:40:34;4.72;;;1.95;;
43118;SDS011;28729;49.838;8.650;2023-04-03T23:44:36;2.87;;;1.70;;
43118;SDS011;28729;49.838;8.650;2023-04-03T23:48:38;2.30;;;1.57;;
43118;SDS011;28729;49.838;8.650;2023-04-03T23:52:40;3.08;;;1.35;;
43118;SDS011;28729;49.838;8.650;2023-04-03T23:56:42;2.88;;;1.85;;
